sensor_id;sensor_type;location;lat;lon;timestamp;pressure;altitude;pressure_sealevel;temperature;humidity
24558;BME280;12726;49.148;8.582;2023-07-13T00:02:22;100328.69;;;18.59;66.47
24558;BME280;12726;49.148;8.582;2023-07-13T00:05:08;100335.47;;;18.56;67.52
24558;BME280;12726;49.148;8.582;2023-07-13T00:07:53;100329.41;;;18.49;68.49
24558;BME280;12726;49.148;8.582;2023-07-13T00:10:40;100332.41;;;18.48;69.35
24558;BME280;12726;49.148;8.582;2023-07-13T00:13:25;100336.19;;;18.42;70.14
24558;BME280;12726;49.148;8.582;2023-07-13T00:16:13;100330.47;;;18.33;70.65
24558;BME280;12726;49.148;8.582;2023-07-13T00:18:58;100325.53;;;18.30;70.82
24558;BME280;12726;49.148;8.582;2023-07-13T00:21:44;100322.22;;;18.23;71.20
24558;BME280;12726;49.148;8.582;2023-07-13T00:24:29;100316.47;;;18.19;71.57
24558;BME280;12726;49.148;8.582;2023-07-13T00:27:15;100317.84;;;18.22;71.50
24558;BME280;12726;49.148;8.582;2023-07-13T00:30:00;100321.69;;;18.26;70.98
24558;BME280;12726;49.148;8.582;2023-07-13T00:32:48;100321.97;;;18.24;71.11
24558;BME280;12726;49.148;8.582;2023-07-13T00:35:33;100321.97;;;18.24;71.15
24558;BME280;12726;49.148;8.582;2023-07-13T00:38:19;100320.31;;;18.23;70.79
24558;BME280;12726;49.148;8.582;2023-07-13T00:41:04;100311.06;;;18.24;70.30
24558;BME280;12726;49.148;8.582;2023-07-13T00:43:50;100314.03;;;18.23;70.42
24558;BME280;12726;49.148;8.582;2023-07-13T00:46:35;100312.66;;;18.20;70.63
24558;BME280;12726;49.148;8.582;2023-07-13T00:49:23;100322.47;;;18.16;71.19
24558;BME280;12726;49.148;8.582;2023-07-13T00:52:09;100317.00;;;18.16;70.55
24558;BME280;12726;49.148;8.582;2023-07-13T00:54:55;100316.47;;;18.19;70.14
24558;BME280;12726;49.148;8.582;2023-07-13T00:57:42;100319.16;;;18.14;69.76
24558;BME280;12726;49.148;8.582;2023-07-13T01:00:29;100320.50;;;18.12;70.06
24558;BME280;12726;49.148;8.582;2023-07-13T01:03:14;100320.22;;;18.08;70.25
24558;BME280;12726;49.148;8.582;2023-07-13T01:06:01;100324.56;;;18.04;70.64
24558;BME280;12726;49.148;8.582;2023-07-13T01:08:46;100336.50;;;17.98;70.87
24558;BME280;12726;49.148;8.582;2023-07-13T01:11:33;100337.31;;;17.93;70.86
24558;BME280;12726;49.148;8.582;2023-07-13T01:14:18;100330.47;;;17.91;71.32
24558;BME280;12726;49.148;8.582;2023-07-13T01:17:04;100338.88;;;17.84;71.94
24558;BME280;12726;49.148;8.582;2023-07-13T01:19:49;100328.44;;;17.76;72.09
24558;BME280;12726;49.148;8.582;2023-07-13T01:22:36;100325.97;;;17.70;72.20
24558;BME280;12726;49.148;8.582;2023-07-13T01:25:21;100322.69;;;17.68;72.88
24558;BME280;12726;49.148;8.582;2023-07-13T01:28:08;100323.97;;;17.60;73.00
24558;BME280;12726;49.148;8.582;2023-07-13T01:30:55;100334.63;;;17.62;73.17
24558;BME280;12726;49.148;8.582;2023-07-13T01:33:41;100335.63;;;17.55;73.18
24558;BME280;12726;49.148;8.582;2023-07-13T01:36:27;100344.31;;;17.52;73.11
24558;BME280;12726;49.148;8.582;2023-07-13T01:39:13;100333.94;;;17.49;73.05
24558;BME280;12726;49.148;8.582;2023-07-13T01:42:01;100332.56;;;17.47;73.16
24558;BME280;12726;49.148;8.582;2023-07-13T01:44:46;100331.44;;;17.43;72.92
24558;BME280;12726;49.148;8.582;2023-07-13T01:47:31;100334.69;;;17.40;73.22
24558;BME280;12726;49.148;8.582;2023-07-13T01:50:17;100335.69;;;17.34;73.56
24558;BME280;12726;49.148;8.582;2023-07-13T01:53:02;100327.53;;;17.34;73.72
24558;BME280;12726;49.148;8.582;2023-07-13T01:55:49;100335.97;;;17.32;73.86
24558;BME280;12726;49.148;8.582;2023-07-13T01:58:34;100329.72;;;17.32;74.33
24558;BME280;12726;49.148;8.582;2023-07-13T02:01:19;100340.81;;;17.25;74.37
24558;BME280;12726;49.148;8.582;2023-07-13T02:04:04;100329.03;;;17.19;74.44
24558;BME280;12726;49.148;8.582;2023-07-13T02:06:50;100333.38;;;17.15;74.56
24558;BME280;12726;49.148;8.582;2023-07-13T02:09:35;100340.13;;;17.13;74.65
24558;BME280;12726;49.148;8.582;2023-07-13T02:12:25;100335.47;;;17.08;75.28
24558;BME280;12726;49.148;8.582;2023-07-13T02:15:10;100337.38;;;17.08;75.20
24558;BME280;12726;49.148;8.582;2023-07-13T02:17:56;100341.72;;;17.09;75.39
24558;BME280;12726;49.148;8.582;2023-07-13T02:20:42;100339.00;;;17.09;75.43
24558;BME280;12726;49.148;8.582;2023-07-13T02:23:28;100338.66;;;17.00;76.11
24558;BME280;12726;49.148;8.582;2023-07-13T02:26:16;100353.47;;;16.88;76.79
24558;BME280;12726;49.148;8.582;2023-07-13T02:29:06;100349.00;;;16.76;77.57
24558;BME280;12726;49.148;8.582;2023-07-13T02:31:51;100347.56;;;16.69;78.10
24558;BME280;12726;49.148;8.582;2023-07-13T02:34:36;100346.94;;;16.62;78.11
24558;BME280;12726;49.148;8.582;2023-07-13T02:37:21;100352.00;;;16.58;78.39
24558;BME280;12726;49.148;8.582;2023-07-13T02:40:12;100349.47;;;16.52;79.28
24558;BME280;12726;49.148;8.582;2023-07-13T02:42:57;100357.56;;;16.47;79.26
24558;BME280;12726;49.148;8.582;2023-07-13T02:45:45;100349.66;;;16.45;79.28
24558;BME280;12726;49.148;8.582;2023-07-13T02:48:30;100345.63;;;16.48;79.52
24558;BME280;12726;49.148;8.582;2023-07-13T02:51:15;100355.09;;;16.45;79.75
24558;BME280;12726;49.148;8.582;2023-07-13T02:54:01;100353.47;;;16.44;79.96
24558;BME280;12726;49.148;8.582;2023-07-13T02:56:47;100354.22;;;16.39;80.05
24558;BME280;12726;49.148;8.582;2023-07-13T02:59:32;100352.56;;;16.38;80.01
24558;BME280;12726;49.148;8.582;2023-07-13T03:02:18;100346.94;;;16.45;80.15
24558;BME280;12726;49.148;8.582;2023-07-13T03:05:04;100351.19;;;16.36;80.18
24558;BME280;12726;49.148;8.582;2023-07-13T03:07:50;100361.59;;;16.22;80.95
24558;BME280;12726;49.148;8.582;2023-07-13T03:10:35;100356.50;;;16.09;81.91
24558;BME280;12726;49.148;8.582;2023-07-13T03:13:20;100367.50;;;15.97;82.87
24558;BME280;12726;49.148;8.582;2023-07-13T03:16:07;100363.06;;;15.91;83.64
24558;BME280;12726;49.148;8.582;2023-07-13T03:18:54;100367.84;;;15.84;84.39
24558;BME280;12726;49.148;8.582;2023-07-13T03:21:39;100353.09;;;15.80;84.66
24558;BME280;12726;49.148;8.582;2023-07-13T03:24:25;100358.75;;;15.79;85.23
24558;BME280;12726;49.148;8.582;2023-07-13T03:27:10;100351.13;;;15.76;84.71
24558;BME280;12726;49.148;8.582;2023-07-13T03:29:56;100357.88;;;15.73;84.85
24558;BME280;12726;49.148;8.582;2023-07-13T03:32:41;100358.69;;;15.74;84.90
24558;BME280;12726;49.148;8.582;2023-07-13T03:35:28;100368.47;;;15.75;84.78
24558;BME280;12726;49.148;8.582;2023-07-13T03:38:13;100368.25;;;15.76;85.20
24558;BME280;12726;49.148;8.582;2023-07-13T03:40:58;100371.63;;;15.83;85.20
24558;BME280;12726;49.148;8.582;2023-07-13T03:43:45;100375.22;;;15.89;85.04
24558;BME280;12726;49.148;8.582;2023-07-13T03:46:32;100374.41;;;15.88;85.08
24558;BME280;12726;49.148;8.582;2023-07-13T03:49:18;100374.56;;;15.82;84.96
24558;BME280;12726;49.148;8.582;2023-07-13T03:52:06;100377.44;;;15.75;85.69
24558;BME280;12726;49.148;8.582;2023-07-13T03:54:51;100382.22;;;15.68;86.28
24558;BME280;12726;49.148;8.582;2023-07-13T03:57:37;100385.09;;;15.61;86.76
24558;BME280;12726;49.148;8.582;2023-07-13T04:00:22;100392.41;;;15.61;87.20
24558;BME280;12726;49.148;8.582;2023-07-13T04:03:08;100392.19;;;15.62;87.37
24558;BME280;12726;49.148;8.582;2023-07-13T04:05:54;100386.00;;;15.67;87.04
24558;BME280;12726;49.148;8.582;2023-07-13T04:08:46;100386.66;;;15.74;86.90
24558;BME280;12726;49.148;8.582;2023-07-13T04:11:32;100388.38;;;15.80;86.35
24558;BME280;12726;49.148;8.582;2023-07-13T04:14:19;100388.72;;;15.84;86.27
24558;BME280;12726;49.148;8.582;2023-07-13T04:17:05;100388.22;;;15.87;86.07
24558;BME280;12726;49.148;8.582;2023-07-13T04:19:50;100393.41;;;15.88;84.82
24558;BME280;12726;49.148;8.582;2023-07-13T04:22:36;100396.78;;;15.95;83.36
24558;BME280;12726;49.148;8.582;2023-07-13T04:25:23;100404.16;;;16.00;82.42
24558;BME280;12726;49.148;8.582;2023-07-13T04:28:08;100398.50;;;16.01;82.54
24558;BME280;12726;49.148;8.582;2023-07-13T04:30:55;100401.78;;;16.03;82.87
24558;BME280;12726;49.148;8.582;2023-07-13T04:33:40;100399.72;;;16.11;83.16
24558;BME280;12726;49.148;8.582;2023-07-13T04:36:27;100408.19;;;16.14;83.29
24558;BME280;12726;49.148;8.582;2023-07-13T04:39:15;100411.00;;;16.19;82.91
24558;BME280;12726;49.148;8.582;2023-07-13T04:42:05;100419.78;;;16.26;82.25
24558;BME280;12726;49.148;8.582;2023-07-13T04:44:51;100419.28;;;16.29;81.45
24558;BME280;12726;49.148;8.582;2023-07-13T04:47:37;100422.50;;;16.26;80.68
24558;BME280;12726;49.148;8.582;2023-07-13T04:50:22;100426.44;;;16.35;80.79
24558;BME280;12726;49.148;8.582;2023-07-13T04:53:08;100424.09;;;16.44;80.59
24558;BME280;12726;49.148;8.582;2023-07-13T04:55:54;100419.91;;;16.53;80.08
24558;BME280;12726;49.148;8.582;2023-07-13T04:58:41;100423.75;;;16.57;78.31
24558;BME280;12726;49.148;8.582;2023-07-13T05:01:26;100428.34;;;16.73;79.01
24558;BME280;12726;49.148;8.582;2023-07-13T05:04:12;100427.13;;;16.86;78.18
24558;BME280;12726;49.148;8.582;2023-07-13T05:06:58;100433.34;;;17.03;78.45
24558;BME280;12726;49.148;8.582;2023-07-13T05:09:44;100425.91;;;17.20;76.98
24558;BME280;12726;49.148;8.582;2023-07-13T05:12:29;100419.41;;;17.21;76.27
24558;BME280;12726;49.148;8.582;2023-07-13T05:15:16;100433.31;;;17.25;76.71
24558;BME280;12726;49.148;8.582;2023-07-13T05:18:04;100429.31;;;17.33;77.31
24558;BME280;12726;49.148;8.582;2023-07-13T05:20:59;100432.97;;;17.43;77.18
24558;BME280;12726;49.148;8.582;2023-07-13T05:23:45;100435.78;;;17.53;76.85
24558;BME280;12726;49.148;8.582;2023-07-13T05:26:30;100438.56;;;17.58;76.74
24558;BME280;12726;49.148;8.582;2023-07-13T05:29:16;100442.19;;;17.64;77.05
24558;BME280;12726;49.148;8.582;2023-07-13T05:32:03;100437.34;;;17.71;76.74
24558;BME280;12726;49.148;8.582;2023-07-13T05:34:48;100445.91;;;17.85;77.02
24558;BME280;12726;49.148;8.582;2023-07-13T05:37:34;100450.63;;;17.94;75.30
24558;BME280;12726;49.148;8.582;2023-07-13T05:40:20;100450.44;;;18.06;74.33
24558;BME280;12726;49.148;8.582;2023-07-13T05:43:05;100459.28;;;18.23;73.98
24558;BME280;12726;49.148;8.582;2023-07-13T05:45:54;100451.75;;;18.40;73.18
24558;BME280;12726;49.148;8.582;2023-07-13T05:48:41;100460.13;;;18.61;71.49
24558;BME280;12726;49.148;8.582;2023-07-13T05:51:26;100450.91;;;18.77;71.46
24558;BME280;12726;49.148;8.582;2023-07-13T05:54:11;100461.06;;;18.87;70.48
24558;BME280;12726;49.148;8.582;2023-07-13T05:56:57;100463.28;;;18.95;68.43
24558;BME280;12726;49.148;8.582;2023-07-13T05:59:42;100462.25;;;19.06;67.71
24558;BME280;12726;49.148;8.582;2023-07-13T06:02:27;100465.34;;;19.30;67.11
24558;BME280;12726;49.148;8.582;2023-07-13T06:05:14;100478.28;;;19.60;66.30
24558;BME280;12726;49.148;8.582;2023-07-13T06:08:00;100476.38;;;19.90;63.53
24558;BME280;12726;49.148;8.582;2023-07-13T06:10:45;100478.31;;;20.15;62.01
24558;BME280;12726;49.148;8.582;2023-07-13T06:13:30;100473.69;;;20.36;62.54
24558;BME280;12726;49.148;8.582;2023-07-13T06:16:16;100487.59;;;20.60;62.03
24558;BME280;12726;49.148;8.582;2023-07-13T06:19:02;100496.28;;;20.82;60.17
24558;BME280;12726;49.148;8.582;2023-07-13T06:21:48;100488.09;;;20.87;58.36
24558;BME280;12726;49.148;8.582;2023-07-13T06:24:34;100495.16;;;20.98;57.91
24558;BME280;12726;49.148;8.582;2023-07-13T06:27:19;100488.22;;;21.31;56.67
24558;BME280;12726;49.148;8.582;2023-07-13T06:30:06;100500.06;;;21.66;53.40
24558;BME280;12726;49.148;8.582;2023-07-13T06:32:52;100499.28;;;22.04;50.64
24558;BME280;12726;49.148;8.582;2023-07-13T06:35:37;100501.22;;;22.38;50.76
24558;BME280;12726;49.148;8.582;2023-07-13T06:38:24;100509.06;;;22.78;49.34
24558;BME280;12726;49.148;8.582;2023-07-13T06:41:09;100504.94;;;23.23;47.63
24558;BME280;12726;49.148;8.582;2023-07-13T06:43:55;100516.78;;;23.85;46.67
24558;BME280;12726;49.148;8.582;2023-07-13T06:46:40;100519.53;;;24.23;44.67
24558;BME280;12726;49.148;8.582;2023-07-13T06:49:25;100513.59;;;24.48;42.88
24558;BME280;12726;49.148;8.582;2023-07-13T06:52:10;100522.41;;;24.77;43.09
24558;BME280;12726;49.148;8.582;2023-07-13T06:54:57;100527.38;;;25.08;42.96
24558;BME280;12726;49.148;8.582;2023-07-13T06:57:42;100530.91;;;25.49;42.34
24558;BME280;12726;49.148;8.582;2023-07-13T07:00:27;100532.13;;;25.70;39.72
24558;BME280;12726;49.148;8.582;2023-07-13T07:03:13;100527.22;;;26.03;39.11
24558;BME280;12726;49.148;8.582;2023-07-13T07:06:00;100519.53;;;26.14;38.21
24558;BME280;12726;49.148;8.582;2023-07-13T07:08:46;100517.53;;;26.28;39.14
24558;BME280;12726;49.148;8.582;2023-07-13T07:11:32;100522.66;;;26.43;38.99
24558;BME280;12726;49.148;8.582;2023-07-13T07:14:18;100519.88;;;26.66;37.90
24558;BME280;12726;49.148;8.582;2023-07-13T07:17:03;100533.19;;;26.95;37.74
24558;BME280;12726;49.148;8.582;2023-07-13T07:19:48;100525.56;;;26.92;37.98
24558;BME280;12726;49.148;8.582;2023-07-13T07:22:33;100521.91;;;27.22;38.62
24558;BME280;12726;49.148;8.582;2023-07-13T07:25:19;100525.91;;;27.47;36.73
24558;BME280;12726;49.148;8.582;2023-07-13T07:28:05;100530.19;;;27.61;36.78
24558;BME280;12726;49.148;8.582;2023-07-13T07:30:53;100541.09;;;27.75;35.38
24558;BME280;12726;49.148;8.582;2023-07-13T07:33:38;100539.81;;;27.81;35.67
24558;BME280;12726;49.148;8.582;2023-07-13T07:36:24;100538.97;;;28.06;35.55
24558;BME280;12726;49.148;8.582;2023-07-13T07:39:09;100536.75;;;28.26;34.25
24558;BME280;12726;49.148;8.582;2023-07-13T07:41:55;100537.56;;;28.26;33.38
24558;BME280;12726;49.148;8.582;2023-07-13T07:44:42;100531.84;;;28.40;34.07
24558;BME280;12726;49.148;8.582;2023-07-13T07:47:27;100533.81;;;28.31;34.13
24558;BME280;12726;49.148;8.582;2023-07-13T07:50:13;100537.19;;;28.62;33.94
24558;BME280;12726;49.148;8.582;2023-07-13T07:52:59;100537.06;;;28.41;34.62
24558;BME280;12726;49.148;8.582;2023-07-13T07:55:46;100537.50;;;28.52;33.87
24558;BME280;12726;49.148;8.582;2023-07-13T07:58:31;100540.38;;;28.73;33.46
24558;BME280;12726;49.148;8.582;2023-07-13T08:01:18;100548.84;;;28.85;33.34
24558;BME280;12726;49.148;8.582;2023-07-13T08:04:04;100535.53;;;29.16;31.80
24558;BME280;12726;49.148;8.582;2023-07-13T08:06:49;100537.38;;;29.04;31.92
24558;BME280;12726;49.148;8.582;2023-07-13T08:09:34;100547.84;;;28.98;33.59
24558;BME280;12726;49.148;8.582;2023-07-13T08:12:20;100542.38;;;29.19;31.31
24558;BME280;12726;49.148;8.582;2023-07-13T08:15:07;100544.97;;;29.53;31.85
24558;BME280;12726;49.148;8.582;2023-07-13T08:17:55;100534.81;;;29.57;32.31
24558;BME280;12726;49.148;8.582;2023-07-13T08:20:41;100545.25;;;29.61;30.96
24558;BME280;12726;49.148;8.582;2023-07-13T08:23:26;100542.28;;;29.86;30.48
24558;BME280;12726;49.148;8.582;2023-07-13T08:26:12;100542.94;;;29.33;30.74
24558;BME280;12726;49.148;8.582;2023-07-13T08:28:57;100540.84;;;29.30;31.60
24558;BME280;12726;49.148;8.582;2023-07-13T08:31:42;100537.22;;;29.00;31.63
24558;BME280;12726;49.148;8.582;2023-07-13T08:34:30;100530.75;;;29.34;30.92
24558;BME280;12726;49.148;8.582;2023-07-13T08:37:15;100531.19;;;29.36;29.62
24558;BME280;12726;49.148;8.582;2023-07-13T08:40:02;100532.38;;;29.27;32.72
24558;BME280;12726;49.148;8.582;2023-07-13T08:42:53;100532.72;;;29.25;32.69
24558;BME280;12726;49.148;8.582;2023-07-13T08:45:43;100534.34;;;28.88;33.25
24558;BME280;12726;49.148;8.582;2023-07-13T08:48:32;100531.91;;;29.25;33.00
24558;BME280;12726;49.148;8.582;2023-07-13T08:51:31;100536.31;;;29.55;30.53
24558;BME280;12726;49.148;8.582;2023-07-13T08:54:21;100531.31;;;29.48;30.99
24558;BME280;12726;49.148;8.582;2023-07-13T08:57:13;100534.84;;;29.78;30.96
24558;BME280;12726;49.148;8.582;2023-07-13T08:59:58;100532.38;;;29.56;30.45
24558;BME280;12726;49.148;8.582;2023-07-13T09:02:46;100535.31;;;29.21;30.46
24558;BME280;12726;49.148;8.582;2023-07-13T09:05:38;100521.28;;;29.27;30.58
24558;BME280;12726;49.148;8.582;2023-07-13T09:08:35;100530.75;;;29.26;32.16
24558;BME280;12726;49.148;8.582;2023-07-13T09:11:42;100526.91;;;29.98;28.98
24558;BME280;12726;49.148;8.582;2023-07-13T09:14:40;100519.63;;;30.26;28.59
24558;BME280;12726;49.148;8.582;2023-07-13T09:17:29;100532.06;;;29.78;29.52
24558;BME280;12726;49.148;8.582;2023-07-13T09:20:22;100529.44;;;29.23;29.49
24558;BME280;12726;49.148;8.582;2023-07-13T09:23:12;100522.03;;;29.06;29.80
24558;BME280;12726;49.148;8.582;2023-07-13T09:26:04;100522.09;;;29.56;29.96
24558;BME280;12726;49.148;8.582;2023-07-13T09:28:53;100523.72;;;29.28;30.09
24558;BME280;12726;49.148;8.582;2023-07-13T09:31:43;100524.34;;;29.63;30.14
24558;BME280;12726;49.148;8.582;2023-07-13T09:34:31;100525.91;;;30.14;28.98
24558;BME280;12726;49.148;8.582;2023-07-13T09:37:18;100527.16;;;30.05;29.06
24558;BME280;12726;49.148;8.582;2023-07-13T09:40:09;100520.09;;;29.86;29.19
24558;BME280;12726;49.148;8.582;2023-07-13T09:42:57;100533.19;;;29.27;29.63
24558;BME280;12726;49.148;8.582;2023-07-13T09:45:45;100521.41;;;29.30;29.35
24558;BME280;12726;49.148;8.582;2023-07-13T09:48:35;100523.34;;;29.00;29.00
24558;BME280;12726;49.148;8.582;2023-07-13T09:51:21;100523.03;;;29.40;28.65
24558;BME280;12726;49.148;8.582;2023-07-13T09:54:17;100518.63;;;29.01;29.49
24558;BME280;12726;49.148;8.582;2023-07-13T09:57:12;100523.13;;;29.14;30.14
24558;BME280;12726;49.148;8.582;2023-07-13T09:59:59;100518.75;;;28.49;29.33
24558;BME280;12726;49.148;8.582;2023-07-13T10:02:45;100521.31;;;28.80;31.03
24558;BME280;12726;49.148;8.582;2023-07-13T10:05:39;100525.69;;;29.78;30.22
24558;BME280;12726;49.148;8.582;2023-07-13T10:08:27;100523.13;;;29.52;29.01
24558;BME280;12726;49.148;8.582;2023-07-13T10:11:18;100526.88;;;29.18;29.61
24558;BME280;12726;49.148;8.582;2023-07-13T10:14:10;100520.16;;;28.90;30.75
24558;BME280;12726;49.148;8.582;2023-07-13T10:17:01;100523.41;;;29.59;30.19
24558;BME280;12726;49.148;8.582;2023-07-13T10:19:48;100511.91;;;30.11;29.94
24558;BME280;12726;49.148;8.582;2023-07-13T10:22:39;100513.06;;;29.89;28.62
24558;BME280;12726;49.148;8.582;2023-07-13T10:25:31;100511.09;;;29.69;28.83
24558;BME280;12726;49.148;8.582;2023-07-13T10:28:25;100483.06;;;29.41;28.10
24558;BME280;12726;49.148;8.582;2023-07-13T10:31:14;100500.25;;;29.34;30.00
24558;BME280;12726;49.148;8.582;2023-07-13T10:34:02;100498.91;;;29.61;29.15
24558;BME280;12726;49.148;8.582;2023-07-13T10:36:48;100497.19;;;29.18;29.14
24558;BME280;12726;49.148;8.582;2023-07-13T10:39:34;100503.63;;;29.40;29.43
24558;BME280;12726;49.148;8.582;2023-07-13T10:42:27;100500.53;;;29.83;28.72
24558;BME280;12726;49.148;8.582;2023-07-13T10:45:14;100505.28;;;29.82;26.84
24558;BME280;12726;49.148;8.582;2023-07-13T10:48:00;100499.56;;;29.58;29.79
24558;BME280;12726;49.148;8.582;2023-07-13T10:50:49;100507.97;;;28.82;30.14
24558;BME280;12726;49.148;8.582;2023-07-13T10:53:38;100502.34;;;28.35;30.54
24558;BME280;12726;49.148;8.582;2023-07-13T10:56:28;100505.16;;;28.91;31.21
24558;BME280;12726;49.148;8.582;2023-07-13T10:59:17;100507.06;;;28.35;32.06
24558;BME280;12726;49.148;8.582;2023-07-13T11:02:11;100498.13;;;28.29;32.09
24558;BME280;12726;49.148;8.582;2023-07-13T11:04:57;100496.03;;;28.90;32.47
24558;BME280;12726;49.148;8.582;2023-07-13T11:07:56;100498.25;;;29.35;31.05
24558;BME280;12726;49.148;8.582;2023-07-13T11:10:50;100505.53;;;29.89;30.83
24558;BME280;12726;49.148;8.582;2023-07-13T11:13:39;100491.75;;;30.02;31.05
24558;BME280;12726;49.148;8.582;2023-07-13T11:16:44;100490.66;;;29.94;29.63
24558;BME280;12726;49.148;8.582;2023-07-13T11:19:47;100489.22;;;30.42;29.22
24558;BME280;12726;49.148;8.582;2023-07-13T11:22:44;100483.59;;;30.17;28.95
24558;BME280;12726;49.148;8.582;2023-07-13T11:25:33;100487.66;;;29.78;29.66
24558;BME280;12726;49.148;8.582;2023-07-13T11:28:25;100490.50;;;28.90;30.83
24558;BME280;12726;49.148;8.582;2023-07-13T11:31:15;100498.13;;;27.95;32.84
24558;BME280;12726;49.148;8.582;2023-07-13T11:34:02;100494.81;;;27.50;33.87
24558;BME280;12726;49.148;8.582;2023-07-13T11:36:47;100507.41;;;27.56;33.71
24558;BME280;12726;49.148;8.582;2023-07-13T11:39:35;100493.41;;;27.87;33.41
24558;BME280;12726;49.148;8.582;2023-07-13T11:42:23;100497.41;;;28.50;32.62
24558;BME280;12726;49.148;8.582;2023-07-13T11:45:20;100483.34;;;29.48;31.99
24558;BME280;12726;49.148;8.582;2023-07-13T11:48:21;100485.69;;;29.37;31.10
24558;BME280;12726;49.148;8.582;2023-07-13T11:51:19;100492.47;;;28.81;31.07
24558;BME280;12726;49.148;8.582;2023-07-13T11:54:10;100491.06;;;28.49;32.03
24558;BME280;12726;49.148;8.582;2023-07-13T11:57:02;100488.53;;;28.01;31.82
24558;BME280;12726;49.148;8.582;2023-07-13T11:59:52;100481.69;;;27.73;31.52
24558;BME280;12726;49.148;8.582;2023-07-13T12:02:40;100488.88;;;27.82;32.45
24558;BME280;12726;49.148;8.582;2023-07-13T12:05:28;100483.25;;;27.39;32.41
24558;BME280;12726;49.148;8.582;2023-07-13T12:08:17;100476.75;;;27.35;33.98
24558;BME280;12726;49.148;8.582;2023-07-13T12:11:05;100478.56;;;27.40;33.64
24558;BME280;12726;49.148;8.582;2023-07-13T12:13:50;100482.19;;;27.75;33.21
24558;BME280;12726;49.148;8.582;2023-07-13T12:16:37;100481.72;;;27.98;32.47
24558;BME280;12726;49.148;8.582;2023-07-13T12:19:25;100475.31;;;28.88;32.93
24558;BME280;12726;49.148;8.582;2023-07-13T12:22:12;100464.59;;;29.45;30.29
24558;BME280;12726;49.148;8.582;2023-07-13T12:24:58;100469.53;;;29.39;29.66
24558;BME280;12726;49.148;8.582;2023-07-13T12:27:46;100478.13;;;29.46;29.69
24558;BME280;12726;49.148;8.582;2023-07-13T12:30:33;100475.06;;;29.81;29.01
24558;BME280;12726;49.148;8.582;2023-07-13T12:33:24;100464.78;;;30.02;27.47
24558;BME280;12726;49.148;8.582;2023-07-13T12:36:13;100471.91;;;29.91;27.02
24558;BME280;12726;49.148;8.582;2023-07-13T12:39:11;100469.19;;;29.62;27.81
24558;BME280;12726;49.148;8.582;2023-07-13T12:42:16;100472.94;;;28.69;29.37
24558;BME280;12726;49.148;8.582;2023-07-13T12:45:14;100482.16;;;28.35;29.67
24558;BME280;12726;49.148;8.582;2023-07-13T12:48:05;100479.25;;;28.23;29.87
24558;BME280;12726;49.148;8.582;2023-07-13T12:50:55;100485.94;;;27.61;30.36
24558;BME280;12726;49.148;8.582;2023-07-13T12:53:43;100487.50;;;27.45;30.76
24558;BME280;12726;49.148;8.582;2023-07-13T12:56:32;100477.44;;;27.49;31.28
24558;BME280;12726;49.148;8.582;2023-07-13T12:59:19;100479.41;;;27.57;31.21
24558;BME280;12726;49.148;8.582;2023-07-13T13:02:21;100474.97;;;27.39;31.17
24558;BME280;12726;49.148;8.582;2023-07-13T13:05:12;100486.19;;;27.34;30.55
24558;BME280;12726;49.148;8.582;2023-07-13T13:08:00;100480.97;;;27.33;30.68
24558;BME280;12726;49.148;8.582;2023-07-13T13:10:45;100485.38;;;27.34;29.99
24558;BME280;12726;49.148;8.582;2023-07-13T13:13:31;100492.69;;;27.21;30.98
24558;BME280;12726;49.148;8.582;2023-07-13T13:16:20;100495.06;;;27.05;29.68
24558;BME280;12726;49.148;8.582;2023-07-13T13:19:13;100486.88;;;26.92;30.34
24558;BME280;12726;49.148;8.582;2023-07-13T13:21:58;100488.69;;;26.96;30.85
24558;BME280;12726;49.148;8.582;2023-07-13T13:24:44;100496.53;;;27.11;30.25
24558;BME280;12726;49.148;8.582;2023-07-13T13:27:31;100487.16;;;27.21;29.99
24558;BME280;12726;49.148;8.582;2023-07-13T13:30:17;100489.91;;;27.21;29.68
24558;BME280;12726;49.148;8.582;2023-07-13T13:33:04;100496.50;;;27.59;31.22
24558;BME280;12726;49.148;8.582;2023-07-13T13:35:51;100492.25;;;28.14;30.09
24558;BME280;12726;49.148;8.582;2023-07-13T13:38:36;100498.91;;;28.56;30.27
24558;BME280;12726;49.148;8.582;2023-07-13T13:41:23;100496.16;;;28.38;28.38
24558;BME280;12726;49.148;8.582;2023-07-13T13:44:09;100499.13;;;28.16;29.67
24558;BME280;12726;49.148;8.582;2023-07-13T13:46:55;100483.41;;;28.55;28.97
24558;BME280;12726;49.148;8.582;2023-07-13T13:49:42;100488.16;;;28.46;28.12
24558;BME280;12726;49.148;8.582;2023-07-13T13:52:27;100482.19;;;28.26;29.90
24558;BME280;12726;49.148;8.582;2023-07-13T13:55:13;100491.31;;;27.84;29.01
24558;BME280;12726;49.148;8.582;2023-07-13T13:58:00;100482.50;;;27.64;29.47
24558;BME280;12726;49.148;8.582;2023-07-13T14:00:46;100488.97;;;27.51;29.96
24558;BME280;12726;49.148;8.582;2023-07-13T14:03:32;100486.88;;;27.57;29.86
24558;BME280;12726;49.148;8.582;2023-07-13T14:06:17;100485.94;;;27.70;30.92
24558;BME280;12726;49.148;8.582;2023-07-13T14:09:05;100475.84;;;28.17;30.72
24558;BME280;12726;49.148;8.582;2023-07-13T14:11:53;100481.81;;;28.45;30.09
24558;BME280;12726;49.148;8.582;2023-07-13T14:14:42;100466.00;;;28.46;28.79
24558;BME280;12726;49.148;8.582;2023-07-13T14:17:28;100481.53;;;28.03;28.70
24558;BME280;12726;49.148;8.582;2023-07-13T14:20:14;100476.97;;;27.64;29.90
24558;BME280;12726;49.148;8.582;2023-07-13T14:22:59;100470.78;;;27.59;29.46
24558;BME280;12726;49.148;8.582;2023-07-13T14:25:45;100484.16;;;27.83;30.52
24558;BME280;12726;49.148;8.582;2023-07-13T14:28:31;100477.31;;;27.80;31.59
24558;BME280;12726;49.148;8.582;2023-07-13T14:31:19;100471.78;;;27.80;31.55
24558;BME280;12726;49.148;8.582;2023-07-13T14:34:04;100462.50;;;27.67;30.23
24558;BME280;12726;49.148;8.582;2023-07-13T14:36:51;100480.56;;;27.74;30.55